sensor_id;sensor_type;location;lat;lon;timestamp;P1;durP1;ratioP1;P2;durP2;ratioP2
79631;SDS011;69108;41.120;16.874;2024-01-10T00:00:26;9.77;;;4.68;;
79631;SDS011;69108;41.120;16.874;2024-01-10T00:02:52;9.73;;;4.60;;
79631;SDS011;69108;41.120;16.874;2024-01-10T00:05:19;8.45;;;4.70;;
79631;SDS011;69108;41.120;16.874;2024-01-10T00:07:46;11.60;;;4.72;;
79631;SDS011;69108;41.120;16.874;2024-01-10T00:10:13;10.23;;;4.43;;
79631;SDS011;69108;41.120;16.874;2024-01-10T00:12:40;9.82;;;4.38;;
79631;SDS011;69108;41.120;16.874;2024-01-10T00:15:09;10.25;;;4.25;;
79631;SDS011;69108;41.120;16.874;2024-01-10T00:17:37;11.07;;;4.72;;
79631;SDS011;69108;41.120;16.874;2024-01-10T00:20:05;8.77;;;4.18;;
79631;SDS011;69108;41.120;16.874;2024-01-10T00:22:33;9.50;;;4.32;;
79631;SDS011;69108;41.120;16.874;2024-01-10T00:25:00;8.60;;;4.10;;
79631;SDS011;69108;41.120;16.874;2024-01-10T00:27:27;10.02;;;4.05;;
79631;SDS011;69108;41.120;16.874;2024-01-10T00:29:54;11.18;;;4.53;;
79631;SDS011;69108;41.120;16.874;2024-01-10T00:32:22;9.35;;;3.92;;
79631;SDS011;69108;41.120;16.874;2024-01-10T00:34:50;9.85;;;3.88;;
79631;SDS011;69108;41.120;16.874;2024-01-10T00:39:43;8.60;;;3.85;;
79631;SDS011;69108;41.120;16.874;2024-01-10T00:42:10;9.68;;;3.97;;
79631;SDS011;69108;41.120;16.874;2024-01-10T00:44:36;9.02;;;4.10;;
79631;SDS011;69108;41.120;16.874;2024-01-10T00:47:04;9.40;;;4.00;;
79631;SDS011;69108;41.120;16.874;2024-01-10T00:49:31;9.05;;;3.78;;
79631;SDS011;69108;41.120;16.874;2024-01-10T00:51:59;9.85;;;3.63;;
79631;SDS011;69108;41.120;16.874;2024-01-10T00:56:51;8.50;;;4.13;;
79631;SDS011;69108;41.120;16.874;2024-01-10T00:59:18;9.38;;;4.13;;
79631;SDS011;69108;41.120;16.874;2024-01-10T01:01:45;8.05;;;3.72;;
79631;SDS011;69108;41.120;16.874;2024-01-10T01:04:11;10.20;;;3.97;;
79631;SDS011;69108;41.120;16.874;2024-01-10T01:06:38;9.23;;;4.13;;
79631;SDS011;69108;41.120;16.874;2024-01-10T01:09:06;10.70;;;4.45;;
79631;SDS011;69108;41.120;16.874;2024-01-10T01:11:33;6.32;;;3.95;;
79631;SDS011;69108;41.120;16.874;2024-01-10T01:14:00;11.55;;;4.63;;
79631;SDS011;69108;41.120;16.874;2024-01-10T01:16:27;11.75;;;4.00;;
79631;SDS011;69108;41.120;16.874;2024-01-10T01:18:54;9.20;;;4.10;;
79631;SDS011;69108;41.120;16.874;2024-01-10T01:21:21;11.27;;;4.70;;
79631;SDS011;69108;41.120;16.874;2024-01-10T01:23:47;8.57;;;3.22;;
79631;SDS011;69108;41.120;16.874;2024-01-10T01:26:16;8.77;;;4.10;;
79631;SDS011;69108;41.120;16.874;2024-01-10T01:28:42;8.80;;;4.13;;
79631;SDS011;69108;41.120;16.874;2024-01-10T01:31:09;9.85;;;4.70;;
79631;SDS011;69108;41.120;16.874;2024-01-10T01:33:36;11.82;;;4.45;;
79631;SDS011;69108;41.120;16.874;2024-01-10T01:36:04;9.07;;;4.20;;
79631;SDS011;69108;41.120;16.874;2024-01-10T01:38:31;9.95;;;4.00;;
79631;SDS011;69108;41.120;16.874;2024-01-10T01:40:58;9.15;;;3.95;;
79631;SDS011;69108;41.120;16.874;2024-01-10T01:43:26;15.00;;;4.35;;
79631;SDS011;69108;41.120;16.874;2024-01-10T01:45:53;11.55;;;4.70;;
79631;SDS011;69108;41.120;16.874;2024-01-10T01:50:49;8.40;;;3.65;;
79631;SDS011;69108;41.120;16.874;2024-01-10T01:53:18;9.00;;;4.22;;
79631;SDS011;69108;41.120;16.874;2024-01-10T01:55:45;12.60;;;4.30;;
79631;SDS011;69108;41.120;16.874;2024-01-10T01:58:12;12.80;;;4.95;;
79631;SDS011;69108;41.120;16.874;2024-01-10T02:00:40;11.45;;;5.00;;
79631;SDS011;69108;41.120;16.874;2024-01-10T02:03:08;9.65;;;4.50;;
79631;SDS011;69108;41.120;16.874;2024-01-10T02:05:36;9.35;;;4.50;;
79631;SDS011;69108;41.120;16.874;2024-01-10T02:08:03;8.50;;;4.60;;
79631;SDS011;69108;41.120;16.874;2024-01-10T02:10:30;10.43;;;4.63;;
79631;SDS011;69108;41.120;16.874;2024-01-10T02:12:57;8.80;;;3.95;;
79631;SDS011;69108;41.120;16.874;2024-01-10T02:15:24;14.23;;;4.88;;
79631;SDS011;69108;41.120;16.874;2024-01-10T02:17:52;12.55;;;5.03;;
79631;SDS011;69108;41.120;16.874;2024-01-10T02:22:46;11.10;;;4.50;;
79631;SDS011;69108;41.120;16.874;2024-01-10T02:25:15;12.05;;;5.00;;
79631;SDS011;69108;41.120;16.874;2024-01-10T02:27:42;11.18;;;4.25;;
79631;SDS011;69108;41.120;16.874;2024-01-10T02:30:09;8.15;;;3.45;;
79631;SDS011;69108;41.120;16.874;2024-01-10T02:32:36;10.90;;;4.78;;
79631;SDS011;69108;41.120;16.874;2024-01-10T02:35:03;11.80;;;5.00;;
79631;SDS011;69108;41.120;16.874;2024-01-10T02:37:31;8.88;;;4.03;;
79631;SDS011;69108;41.120;16.874;2024-01-10T02:39:58;9.13;;;4.07;;
79631;SDS011;69108;41.120;16.874;2024-01-10T02:42:26;10.38;;;4.63;;
79631;SDS011;69108;41.120;16.874;2024-01-10T02:44:53;13.13;;;5.32;;
79631;SDS011;69108;41.120;16.874;2024-01-10T02:47:20;10.45;;;4.95;;
79631;SDS011;69108;41.120;16.874;2024-01-10T02:49:47;10.30;;;4.65;;
79631;SDS011;69108;41.120;16.874;2024-01-10T02:52:14;12.13;;;4.70;;
79631;SDS011;69108;41.120;16.874;2024-01-10T02:54:40;11.95;;;4.63;;
79631;SDS011;69108;41.120;16.874;2024-01-10T02:57:07;10.52;;;4.78;;
79631;SDS011;69108;41.120;16.874;2024-01-10T02:59:35;10.48;;;4.93;;
79631;SDS011;69108;41.120;16.874;2024-01-10T03:04:29;9.85;;;4.03;;
79631;SDS011;69108;41.120;16.874;2024-01-10T03:06:56;9.75;;;5.00;;
79631;SDS011;69108;41.120;16.874;2024-01-10T03:09:22;10.55;;;5.00;;
79631;SDS011;69108;41.120;16.874;2024-01-10T03:11:50;9.82;;;4.70;;
79631;SDS011;69108;41.120;16.874;2024-01-10T03:14:16;8.95;;;4.55;;
79631;SDS011;69108;41.120;16.874;2024-01-10T03:16:44;10.07;;;4.85;;
79631;SDS011;69108;41.120;16.874;2024-01-10T03:19:11;10.48;;;4.15;;
79631;SDS011;69108;41.120;16.874;2024-01-10T03:21:38;10.45;;;4.63;;
79631;SDS011;69108;41.120;16.874;2024-01-10T03:24:05;9.45;;;5.10;;
79631;SDS011;69108;41.120;16.874;2024-01-10T03:26:33;10.02;;;4.80;;
79631;SDS011;69108;41.120;16.874;2024-01-10T03:29:00;11.10;;;5.82;;
79631;SDS011;69108;41.120;16.874;2024-01-10T03:31:27;10.35;;;4.80;;
79631;SDS011;69108;41.120;16.874;2024-01-10T03:33:56;12.93;;;5.38;;
79631;SDS011;69108;41.120;16.874;2024-01-10T03:36:24;10.73;;;5.07;;
79631;SDS011;69108;41.120;16.874;2024-01-10T03:38:51;11.30;;;4.57;;
79631;SDS011;69108;41.120;16.874;2024-01-10T03:41:18;11.48;;;4.60;;
79631;SDS011;69108;41.120;16.874;2024-01-10T03:43:45;9.38;;;4.32;;
79631;SDS011;69108;41.120;16.874;2024-01-10T03:46:12;13.10;;;4.93;;
79631;SDS011;69108;41.120;16.874;2024-01-10T03:48:39;10.60;;;5.00;;
79631;SDS011;69108;41.120;16.874;2024-01-10T03:51:14;10.68;;;4.90;;
79631;SDS011;69108;41.120;16.874;2024-01-10T03:53:41;13.75;;;4.68;;
79631;SDS011;69108;41.120;16.874;2024-01-10T03:56:08;9.32;;;4.38;;
79631;SDS011;69108;41.120;16.874;2024-01-10T03:58:35;11.43;;;4.97;;
79631;SDS011;69108;41.120;16.874;2024-01-10T04:01:04;10.75;;;4.47;;
79631;SDS011;69108;41.120;16.874;2024-01-10T04:03:31;9.98;;;4.75;;
79631;SDS011;69108;41.120;16.874;2024-01-10T04:05:58;9.20;;;4.50;;
79631;SDS011;69108;41.120;16.874;2024-01-10T04:08:26;11.32;;;4.75;;
79631;SDS011;69108;41.120;16.874;2024-01-10T04:10:53;11.43;;;4.57;;
79631;SDS011;69108;41.120;16.874;2024-01-10T04:13:20;8.65;;;4.18;;
79631;SDS011;69108;41.120;16.874;2024-01-10T04:15:47;9.45;;;4.25;;
79631;SDS011;69108;41.120;16.874;2024-01-10T04:18:14;8.65;;;4.97;;
79631;SDS011;69108;41.120;16.874;2024-01-10T04:20:41;11.07;;;4.68;;
79631;SDS011;69108;41.120;16.874;2024-01-10T04:23:09;12.95;;;4.57;;
79631;SDS011;69108;41.120;16.874;2024-01-10T04:25:37;11.77;;;6.03;;
79631;SDS011;69108;41.120;16.874;2024-01-10T04:30:31;11.77;;;4.85;;
79631;SDS011;69108;41.120;16.874;2024-01-10T04:32:57;12.30;;;4.90;;
79631;SDS011;69108;41.120;16.874;2024-01-10T04:35:24;11.80;;;5.18;;
79631;SDS011;69108;41.120;16.874;2024-01-10T04:37:51;9.30;;;4.93;;
79631;SDS011;69108;41.120;16.874;2024-01-10T04:40:18;11.07;;;4.85;;
79631;SDS011;69108;41.120;16.874;2024-01-10T04:42:46;9.05;;;4.55;;
79631;SDS011;69108;41.120;16.874;2024-01-10T04:47:39;12.80;;;4.80;;
79631;SDS011;69108;41.120;16.874;2024-01-10T04:50:07;9.38;;;4.35;;
79631;SDS011;69108;41.120;16.874;2024-01-10T04:52:34;10.45;;;4.78;;
79631;SDS011;69108;41.120;16.874;2024-01-10T04:55:01;12.57;;;5.35;;
79631;SDS011;69108;41.120;16.874;2024-01-10T04:57:30;9.48;;;4.43;;
79631;SDS011;69108;41.120;16.874;2024-01-10T04:59:59;13.43;;;4.78;;
79631;SDS011;69108;41.120;16.874;2024-01-10T05:04:52;12.15;;;4.95;;
79631;SDS011;69108;41.120;16.874;2024-01-10T05:07:19;10.63;;;4.50;;
79631;SDS011;69108;41.120;16.874;2024-01-10T05:09:46;10.13;;;4.88;;
79631;SDS011;69108;41.120;16.874;2024-01-10T05:12:12;12.38;;;4.88;;
79631;SDS011;69108;41.120;16.874;2024-01-10T05:14:39;11.68;;;4.78;;
79631;SDS011;69108;41.120;16.874;2024-01-10T05:17:09;11.20;;;5.05;;
79631;SDS011;69108;41.120;16.874;2024-01-10T05:19:36;13.05;;;5.38;;
79631;SDS011;69108;41.120;16.874;2024-01-10T05:22:03;13.30;;;4.28;;
79631;SDS011;69108;41.120;16.874;2024-01-10T05:24:31;12.20;;;4.93;;
79631;SDS011;69108;41.120;16.874;2024-01-10T05:26:58;12.10;;;4.82;;
79631;SDS011;69108;41.120;16.874;2024-01-10T05:29:25;12.75;;;5.32;;
79631;SDS011;69108;41.120;16.874;2024-01-10T05:31:52;8.80;;;4.68;;
79631;SDS011;69108;41.120;16.874;2024-01-10T05:34:21;12.18;;;5.13;;
79631;SDS011;69108;41.120;16.874;2024-01-10T05:39:14;11.40;;;5.10;;
79631;SDS011;69108;41.120;16.874;2024-01-10T05:41:41;12.35;;;4.80;;
79631;SDS011;69108;41.120;16.874;2024-01-10T05:44:09;12.23;;;4.85;;
79631;SDS011;69108;41.120;16.874;2024-01-10T05:46:36;9.43;;;4.28;;
79631;SDS011;69108;41.120;16.874;2024-01-10T05:49:02;11.27;;;4.82;;
79631;SDS011;69108;41.120;16.874;2024-01-10T05:51:32;13.75;;;5.82;;
79631;SDS011;69108;41.120;16.874;2024-01-10T05:53:58;13.10;;;4.95;;
79631;SDS011;69108;41.120;16.874;2024-01-10T05:56:25;11.93;;;4.93;;
79631;SDS011;69108;41.120;16.874;2024-01-10T05:58:52;11.50;;;5.80;;
79631;SDS011;69108;41.120;16.874;2024-01-10T06:01:19;9.75;;;4.68;;
79631;SDS011;69108;41.120;16.874;2024-01-10T06:03:45;11.93;;;5.97;;
79631;SDS011;69108;41.120;16.874;2024-01-10T06:06:12;14.15;;;5.25;;
79631;SDS011;69108;41.120;16.874;2024-01-10T06:08:41;12.95;;;5.38;;
79631;SDS011;69108;41.120;16.874;2024-01-10T06:11:08;12.77;;;5.45;;
79631;SDS011;69108;41.120;16.874;2024-01-10T06:13:35;12.63;;;5.30;;
79631;SDS011;69108;41.120;16.874;2024-01-10T06:16:02;11.02;;;4.82;;
79631;SDS011;69108;41.120;16.874;2024-01-10T06:18:29;15.02;;;5.38;;
79631;SDS011;69108;41.120;16.874;2024-01-10T06:20:56;12.05;;;5.30;;
79631;SDS011;69108;41.120;16.874;2024-01-10T06:23:23;13.02;;;6.70;;
79631;SDS011;69108;41.120;16.874;2024-01-10T06:25:51;14.38;;;6.05;;
79631;SDS011;69108;41.120;16.874;2024-01-10T06:28:19;13.40;;;5.80;;
79631;SDS011;69108;41.120;16.874;2024-01-10T06:30:46;13.40;;;6.00;;
79631;SDS011;69108;41.120;16.874;2024-01-10T06:33:13;14.25;;;6.53;;
79631;SDS011;69108;41.120;16.874;2024-01-10T06:35:40;12.80;;;6.60;;
79631;SDS011;69108;41.120;16.874;2024-01-10T06:38:08;13.25;;;5.90;;
79631;SDS011;69108;41.120;16.874;2024-01-10T06:40:35;16.27;;;6.60;;
79631;SDS011;69108;41.120;16.874;2024-01-10T06:43:04;13.75;;;6.82;;
79631;SDS011;69108;41.120;16.874;2024-01-10T06:45:33;16.67;;;7.22;;
79631;SDS011;69108;41.120;16.874;2024-01-10T06:48:00;17.58;;;6.68;;
79631;SDS011;69108;41.120;16.874;2024-01-10T06:50:27;15.32;;;6.40;;
79631;SDS011;69108;41.120;16.874;2024-01-10T06:52:55;15.77;;;6.82;;
79631;SDS011;69108;41.120;16.874;2024-01-10T06:55:22;15.85;;;6.90;;
79631;SDS011;69108;41.120;16.874;2024-01-10T06:57:49;17.63;;;7.63;;
79631;SDS011;69108;41.120;16.874;2024-01-10T07:00:19;16.45;;;8.73;;
79631;SDS011;69108;41.120;16.874;2024-01-10T07:02:46;12.75;;;6.13;;
79631;SDS011;69108;41.120;16.874;2024-01-10T07:05:14;13.15;;;6.03;;
79631;SDS011;69108;41.120;16.874;2024-01-10T07:07:40;14.93;;;7.07;;
79631;SDS011;69108;41.120;16.874;2024-01-10T07:10:08;14.40;;;7.15;;
79631;SDS011;69108;41.120;16.874;2024-01-10T07:12:36;15.90;;;6.95;;
79631;SDS011;69108;41.120;16.874;2024-01-10T07:15:04;16.88;;;6.68;;
79631;SDS011;69108;41.120;16.874;2024-01-10T07:17:33;15.05;;;6.93;;
79631;SDS011;69108;41.120;16.874;2024-01-10T07:20:00;14.52;;;7.22;;
79631;SDS011;69108;41.120;16.874;2024-01-10T07:22:28;14.20;;;6.22;;
79631;SDS011;69108;41.120;16.874;2024-01-10T07:24:55;11.70;;;6.80;;
79631;SDS011;69108;41.120;16.874;2024-01-10T07:27:22;13.18;;;6.55;;
79631;SDS011;69108;41.120;16.874;2024-01-10T07:29:49;15.23;;;6.60;;
79631;SDS011;69108;41.120;16.874;2024-01-10T07:32:16;15.48;;;6.50;;
79631;SDS011;69108;41.120;16.874;2024-01-10T07:34:46;15.23;;;6.32;;
79631;SDS011;69108;41.120;16.874;2024-01-10T07:39:42;15.98;;;6.82;;
79631;SDS011;69108;41.120;16.874;2024-01-10T07:42:08;12.25;;;6.72;;
79631;SDS011;69108;41.120;16.874;2024-01-10T07:44:35;12.70;;;5.88;;
79631;SDS011;69108;41.120;16.874;2024-01-10T07:47:02;15.38;;;6.82;;
79631;SDS011;69108;41.120;16.874;2024-01-10T07:49:29;16.92;;;7.57;;
79631;SDS011;69108;41.120;16.874;2024-01-10T07:51:58;13.93;;;6.68;;
79631;SDS011;69108;41.120;16.874;2024-01-10T07:54:25;16.88;;;7.63;;
79631;SDS011;69108;41.120;16.874;2024-01-10T07:56:52;14.75;;;6.50;;
79631;SDS011;69108;41.120;16.874;2024-01-10T07:59:19;15.63;;;7.70;;
79631;SDS011;69108;41.120;16.874;2024-01-10T08:01:54;15.23;;;7.20;;
79631;SDS011;69108;41.120;16.874;2024-01-10T08:04:21;12.95;;;6.20;;
79631;SDS011;69108;41.120;16.874;2024-01-10T08:06:48;13.88;;;5.80;;
79631;SDS011;69108;41.120;16.874;2024-01-10T08:09:16;13.48;;;6.22;;
79631;SDS011;69108;41.120;16.874;2024-01-10T08:11:44;16.35;;;6.40;;
79631;SDS011;69108;41.120;16.874;2024-01-10T08:14:11;17.90;;;6.93;;
79631;SDS011;69108;41.120;16.874;2024-01-10T08:16:38;13.48;;;5.88;;
79631;SDS011;69108;41.120;16.874;2024-01-10T08:19:04;14.85;;;6.25;;
79631;SDS011;69108;41.120;16.874;2024-01-10T08:21:31;9.52;;;4.57;;
79631;SDS011;69108;41.120;16.874;2024-01-10T08:23:58;12.20;;;6.45;;
79631;SDS011;69108;41.120;16.874;2024-01-10T08:26:26;14.65;;;6.63;;
79631;SDS011;69108;41.120;16.874;2024-01-10T08:28:53;13.43;;;5.72;;
79631;SDS011;69108;41.120;16.874;2024-01-10T08:31:19;12.63;;;6.32;;
79631;SDS011;69108;41.120;16.874;2024-01-10T08:33:47;16.08;;;7.40;;
79631;SDS011;69108;41.120;16.874;2024-01-10T08:36:14;17.70;;;7.47;;
79631;SDS011;69108;41.120;16.874;2024-01-10T08:38:42;16.25;;;5.97;;
79631;SDS011;69108;41.120;16.874;2024-01-10T08:41:08;11.85;;;5.55;;
79631;SDS011;69108;41.120;16.874;2024-01-10T08:43:38;11.40;;;5.93;;
79631;SDS011;69108;41.120;16.874;2024-01-10T08:46:05;13.95;;;7.15;;
79631;SDS011;69108;41.120;16.874;2024-01-10T08:48:33;14.38;;;6.63;;
79631;SDS011;69108;41.120;16.874;2024-01-10T08:51:01;14.18;;;6.95;;
79631;SDS011;69108;41.120;16.874;2024-01-10T08:53:28;16.58;;;6.90;;
79631;SDS011;69108;41.120;16.874;2024-01-10T08:55:55;15.88;;;6.75;;
79631;SDS011;69108;41.120;16.874;2024-01-10T08:58:22;10.75;;;6.15;;
79631;SDS011;69108;41.120;16.874;2024-01-10T09:00:50;18.00;;;6.65;;
79631;SDS011;69108;41.120;16.874;2024-01-10T09:08:10;15.98;;;6.90;;
79631;SDS011;69108;41.120;16.874;2024-01-10T09:10:36;13.45;;;6.60;;
79631;SDS011;69108;41.120;16.874;2024-01-10T09:13:03;12.73;;;6.00;;
79631;SDS011;69108;41.120;16.874;2024-01-10T09:15:30;15.98;;;6.72;;
79631;SDS011;69108;41.120;16.874;2024-01-10T09:17:59;13.40;;;5.85;;
79631;SDS011;69108;41.120;16.874;2024-01-10T09:22:52;19.35;;;6.25;;
79631;SDS011;69108;41.120;16.874;2024-01-10T09:25:20;17.23;;;6.18;;
79631;SDS011;69108;41.120;16.874;2024-01-10T09:27:46;14.77;;;7.43;;
79631;SDS011;69108;41.120;16.874;2024-01-10T09:30:13;11.20;;;5.05;;
79631;SDS011;69108;41.120;16.874;2024-01-10T09:32:41;14.95;;;5.18;;
79631;SDS011;69108;41.120;16.874;2024-01-10T09:35:09;15.82;;;6.13;;
79631;SDS011;69108;41.120;16.874;2024-01-10T09:37:37;15.50;;;5.63;;
79631;SDS011;69108;41.120;16.874;2024-01-10T09:40:04;13.55;;;6.00;;
79631;SDS011;69108;41.120;16.874;2024-01-10T09:42:33;10.60;;;5.22;;
79631;SDS011;69108;41.120;16.874;2024-01-10T09:45:03;11.88;;;6.07;;
79631;SDS011;69108;41.120;16.874;2024-01-10T09:47:31;11.77;;;5.47;;
79631;SDS011;69108;41.120;16.874;2024-01-10T09:49:59;12.45;;;5.25;;
79631;SDS011;69108;41.120;16.874;2024-01-10T09:52:28;15.55;;;6.05;;
79631;SDS011;69108;41.120;16.874;2024-01-10T09:55:05;10.70;;;6.07;;
79631;SDS011;69108;41.120;16.874;2024-01-10T09:57:34;12.45;;;5.30;;
79631;SDS011;69108;41.120;16.874;2024-01-10T10:00:02;21.70;;;9.50;;
79631;SDS011;69108;41.120;16.874;2024-01-10T10:02:35;13.73;;;6.25;;
79631;SDS011;69108;41.120;16.874;2024-01-10T10:05:07;11.70;;;6.32;;
79631;SDS011;69108;41.120;16.874;2024-01-10T10:07:44;13.48;;;5.88;;
79631;SDS011;69108;41.120;16.874;2024-01-10T10:10:11;16.77;;;6.82;;
79631;SDS011;69108;41.120;16.874;2024-01-10T10:12:42;12.68;;;5.38;;
79631;SDS011;69108;41.120;16.874;2024-01-10T10:15:10;14.50;;;6.90;;
79631;SDS011;69108;41.120;16.874;2024-01-10T10:17:39;12.15;;;6.30;;
79631;SDS011;69108;41.120;16.874;2024-01-10T10:20:13;11.82;;;5.30;;
79631;SDS011;69108;41.120;16.874;2024-01-10T10:22:46;10.65;;;5.22;;
79631;SDS011;69108;41.120;16.874;2024-01-10T10:25:26;12.85;;;5.60;;
79631;SDS011;69108;41.120;16.874;2024-01-10T10:27:54;14.68;;;6.00;;
79631;SDS011;69108;41.120;16.874;2024-01-10T10:30:21;12.43;;;4.95;;
79631;SDS011;69108;41.120;16.874;2024-01-10T10:32:48;15.15;;;5.80;;
79631;SDS011;69108;41.120;16.874;2024-01-10T10:35:15;15.25;;;6.30;;
79631;SDS011;69108;41.120;16.874;2024-01-10T10:37:42;13.18;;;6.35;;
79631;SDS011;69108;41.120;16.874;2024-01-10T10:40:10;11.95;;;4.35;;
79631;SDS011;69108;41.120;16.874;2024-01-10T10:42:38;16.38;;;7.80;;
79631;SDS011;69108;41.120;16.874;2024-01-10T10:45:11;17.00;;;6.75;;
79631;SDS011;69108;41.120;16.874;2024-01-10T10:47:41;13.57;;;5.70;;
79631;SDS011;69108;41.120;16.874;2024-01-10T10:50:11;12.30;;;6.30;;
79631;SDS011;69108;41.120;16.874;2024-01-10T10:52:39;14.20;;;5.72;;
79631;SDS011;69108;41.120;16.874;2024-01-10T10:55:14;13.10;;;6.60;;
79631;SDS011;69108;41.120;16.874;2024-01-10T10:57:43;11.75;;;5.68;;
79631;SDS011;69108;41.120;16.874;2024-01-10T11:00:11;13.98;;;5.88;;
79631;SDS011;69108;41.120;16.874;2024-01-10T11:02:40;14.13;;;6.60;;
79631;SDS011;69108;41.120;16.874;2024-01-10T11:05:08;14.27;;;6.50;;
79631;SDS011;69108;41.120;16.874;2024-01-10T11:07:35;12.60;;;5.90;;
79631;SDS011;69108;41.120;16.874;2024-01-10T11:10:03;15.68;;;6.35;;
79631;SDS011;69108;41.120;16.874;2024-01-10T11:12:38;12.40;;;5.35;;
79631;SDS011;69108;41.120;16.874;2024-01-10T11:15:24;13.18;;;6.00;;
79631;SDS011;69108;41.120;16.874;2024-01-10T11:18:12;14.15;;;6.45;;
79631;SDS011;69108;41.120;16.874;2024-01-10T11:20:57;15.55;;;6.95;;
79631;SDS011;69108;41.120;16.874;2024-01-10T11:23:39;12.07;;;5.28;;
79631;SDS011;69108;41.120;16.874;2024-01-10T11:26:09;13.40;;;6.40;;
79631;SDS011;69108;41.120;16.874;2024-01-10T11:28:39;10.30;;;5.07;;
79631;SDS011;69108;41.120;16.874;2024-01-10T11:31:07;8.90;;;4.60;;
79631;SDS011;69108;41.120;16.874;2024-01-10T11:33:34;20.42;;;8.90;;
79631;SDS011;69108;41.120;16.874;2024-01-10T11:36:08;14.30;;;6.50;;
79631;SDS011;69108;41.120;16.874;2024-01-10T11:38:42;10.07;;;4.32;;
79631;SDS011;69108;41.120;16.874;2024-01-10T11:41:11;10.35;;;4.80;;
79631;SDS011;69108;41.120;16.874;2024-01-10T11:46:07;9.15;;;4.55;;
79631;SDS011;69108;41.120;16.874;2024-01-10T11:48:37;11.75;;;3.72;;
79631;SDS011;69108;41.120;16.874;2024-01-10T11:51:05;10.10;;;4.70;;
79631;SDS011;69108;41.120;16.874;2024-01-10T11:56:11;10.02;;;4.72;;
79631;SDS011;69108;41.120;16.874;2024-01-10T11:58:56;8.40;;;2.83;;
79631;SDS011;69108;41.120;16.874;2024-01-10T12:01:27;7.72;;;4.20;;
79631;SDS011;69108;41.120;16.874;2024-01-10T12:03:54;14.32;;;5.50;;
79631;SDS011;69108;41.120;16.874;2024-01-10T12:06:22;10.90;;;4.50;;
79631;SDS011;69108;41.120;16.874;2024-01-10T12:08:50;10.23;;;4.88;;
79631;SDS011;69108;41.120;16.874;2024-01-10T12:11:17;10.60;;;4.32;;
79631;SDS011;69108;41.120;16.874;2024-01-10T12:13:44;10.30;;;3.80;;
79631;SDS011;69108;41.120;16.874;2024-01-10T12:16:13;8.60;;;3.83;;
79631;SDS011;69108;41.120;16.874;2024-01-10T12:18:40;12.98;;;4.95;;
79631;SDS011;69108;41.120;16.874;2024-01-10T12:21:09;7.60;;;3.75;;
79631;SDS011;69108;41.120;16.874;2024-01-10T12:23:37;8.90;;;4.53;;
79631;SDS011;69108;41.120;16.874;2024-01-10T12:26:04;9.43;;;4.22;;
79631;SDS011;69108;41.120;16.874;2024-01-10T12:28:34;10.65;;;4.10;;
79631;SDS011;69108;41.120;16.874;2024-01-10T12:31:01;11.20;;;4.90;;
79631;SDS011;69108;41.120;16.874;2024-01-10T12:33:31;10.23;;;4.43;;
79631;SDS011;69108;41.120;16.874;2024-01-10T12:36:02;11.25;;;4.60;;
79631;SDS011;69108;41.120;16.874;2024-01-10T12:38:33;12.13;;;4.50;;
79631;SDS011;69108;41.120;16.874;2024-01-10T12:41:00;11.00;;;4.50;;
79631;SDS011;69108;41.120;16.874;2024-01-10T12:43:27;12.32;;;4.80;;
79631;SDS011;69108;41.120;16.874;2024-01-10T12:46:04;9.07;;;4.20;;
79631;SDS011;69108;41.120;16.874;2024-01-10T12:48:33;9.45;;;4.28;;
79631;SDS011;69108;41.120;16.874;2024-01-10T12:51:02;11.10;;;4.80;;
79631;SDS011;69108;41.120;16.874;2024-01-10T12:53:33;10.23;;;5.40;;
79631;SDS011;69108;41.120;16.874;2024-01-10T12:56:00;10.55;;;4.72;;
79631;SDS011;69108;41.120;16.874;2024-01-10T12:58:27;13.35;;;5.10;;
79631;SDS011;69108;41.120;16.874;2024-01-10T13:00:54;11.73;;;4.53;;
79631;SDS011;69108;41.120;16.874;2024-01-10T13:03:21;14.07;;;4.80;;
79631;SDS011;69108;41.120;16.874;2024-01-10T13:05:49;13.25;;;4.65;;
79631;SDS011;69108;41.120;16.874;2024-01-10T13:08:17;11.32;;;4.88;;
79631;SDS011;69108;41.120;16.874;2024-01-10T13:10:44;12.32;;;4.78;;
79631;SDS011;69108;41.120;16.874;2024-01-10T13:13:11;11.77;;;4.55;;
79631;SDS011;69108;41.120;16.874;2024-01-10T13:15:38;8.80;;;3.70;;
79631;SDS011;69108;41.120;16.874;2024-01-10T13:18:05;7.68;;;3.35;;
79631;SDS011;69108;41.120;16.874;2024-01-10T13:20:34;7.88;;;4.32;;
79631;SDS011;69108;41.120;16.874;2024-01-10T13:23:04;13.05;;;4.10;;
79631;SDS011;69108;41.120;16.874;2024-01-10T13:25:31;8.80;;;3.97;;
79631;SDS011;69108;41.120;16.874;2024-01-10T13:27:58;12.13;;;4.75;;
79631;SDS011;69108;41.120;16.874;2024-01-10T13:30:26;10.38;;;4.55;;
79631;SDS011;69108;41.120;16.874;2024-01-10T13:32:52;9.27;;;4.38;;
79631;SDS011;69108;41.120;16.874;2024-01-10T13:35:19;10.70;;;4.05;;
79631;SDS011;69108;41.120;16.874;2024-01-10T13:37:47;10.25;;;4.50;;
79631;SDS011;69108;41.120;16.874;2024-01-10T13:40:15;11.55;;;4.28;;
79631;SDS011;69108;41.120;16.874;2024-01-10T13:42:45;11.85;;;5.00;;
79631;SDS011;69108;41.120;16.874;2024-01-10T13:45:12;20.02;;;4.68;;
79631;SDS011;69108;41.120;16.874;2024-01-10T13:47:39;13.75;;;4.82;;
79631;SDS011;69108;41.120;16.874;2024-01-10T13:50:06;10.57;;;4.68;;
79631;SDS011;69108;41.120;16.874;2024-01-10T13:52:33;11.85;;;4.82;;
79631;SDS011;69108;41.120;16.874;2024-01-10T13:55:00;12.57;;;5.80;;
79631;SDS011;69108;41.120;16.874;2024-01-10T13:57:31;11.90;;;4.97;;
79631;SDS011;69108;41.120;16.874;2024-01-10T13:59:58;13.85;;;5.85;;
79631;SDS011;69108;41.120;16.874;2024-01-10T14:02:26;13.30;;;6.35;;
79631;SDS011;69108;41.120;16.874;2024-01-10T14:04:53;15.00;;;5.55;;
79631;SDS011;69108;41.120;16.874;2024-01-10T14:07:22;11.70;;;5.65;;
79631;SDS011;69108;41.120;16.874;2024-01-10T14:09:49;10.00;;;5.38;;
79631;SDS011;69108;41.120;16.874;2024-01-10T14:12:17;11.07;;;6.50;;
79631;SDS011;69108;41.120;16.874;2024-01-10T14:14:45;12.35;;;5.80;;
79631;SDS011;69108;41.120;16.874;2024-01-10T14:19:38;8.68;;;4.93;;
79631;SDS011;69108;41.120;16.874;2024-01-10T14:22:05;10.98;;;5.25;;
79631;SDS011;69108;41.120;16.874;2024-01-10T14:24:32;10.20;;;5.93;;
79631;SDS011;69108;41.120;16.874;2024-01-10T14:26:59;9.00;;;5.30;;
79631;SDS011;69108;41.120;16.874;2024-01-10T14:29:25;9.93;;;5.13;;
79631;SDS011;69108;41.120;16.874;2024-01-10T14:31:53;10.35;;;4.90;;
79631;SDS011;69108;41.120;16.874;2024-01-10T14:34:20;12.18;;;5.47;;
79631;SDS011;69108;41.120;16.874;2024-01-10T14:36:47;10.10;;;5.43;;
79631;SDS011;69108;41.120;16.874;2024-01-10T14:39:14;9.35;;;5.68;;
79631;SDS011;69108;41.120;16.874;2024-01-10T14:41:41;10.32;;;5.35;;
79631;SDS011;69108;41.120;16.874;2024-01-10T14:44:07;10.52;;;5.30;;
79631;SDS011;69108;41.120;16.874;2024-01-10T14:46:34;10.93;;;5.47;;
79631;SDS011;69108;41.120;16.874;2024-01-10T14:49:03;8.55;;;4.57;;
79631;SDS011;69108;41.120;16.874;2024-01-10T14:51:29;11.73;;;5.72;;
79631;SDS011;69108;41.120;16.874;2024-01-10T14:53:56;9.63;;;5.13;;
79631;SDS011;69108;41.120;16.874;2024-01-10T14:56:23;15.55;;;5.85;;
79631;SDS011;69108;41.120;16.874;2024-01-10T14:58:50;10.23;;;5.20;;
79631;SDS011;69108;41.120;16.874;2024-01-10T15:01:17;10.60;;;6.18;;
79631;SDS011;69108;41.120;16.874;2024-01-10T15:06:13;10.88;;;5.97;;
79631;SDS011;69108;41.120;16.874;2024-01-10T15:08:40;11.30;;;6.35;;